Time;durP1;ratioP1;P1;durP2;ratioP2;P2;SDS_P1;SDS_P2;PMS_P1;PMS_P2;Temp;Humidity;BMP_temperature;BMP_pressure;BME280_temperature;BME280_humidity;BME280_pressure;Samples;Min_cycle;Max_cycle;Signal;HPM_P1;HPM_P2
2021/11/24 00:01:33;;;;;;;14.57;9.02;;;1.80;99.90;;;;;;5076950;28;20035;-94
2021/11/24 00:03:59;;;;;;;14.32;9.30;;;1.80;99.90;;;;;;5076216;28;20024;-94
2021/11/24 00:06:25;;;;;;;18.25;10.77;;;1.80;99.90;;;;;;5076742;28;20036;-95
2021/11/24 00:08:51;;;;;;;16.45;10.85;;;1.60;99.90;;;;;;5077382;28;20024;-96
2021/11/24 00:11:17;;;;;;;14.55;9.63;;;1.60;99.90;;;;;;5076066;28;20060;-94
2021/11/24 00:13:43;;;;;;;16.42;9.45;;;1.50;99.90;;;;;;5077779;28;20029;-94
2021/11/24 00:16:09;;;;;;;14.13;9.45;;;1.40;99.90;;;;;;5076064;28;20036;-94
2021/11/24 00:18:36;;;;;;;14.73;9.75;;;1.40;99.90;;;;;;5077144;28;20024;-94
2021/11/24 00:21:01;;;;;;;12.60;8.27;;;1.50;99.90;;;;;;5075825;28;20588;-94
2021/11/24 00:23:27;;;;;;;15.10;10.55;;;1.50;99.90;;;;;;5076104;28;20050;-94
2021/11/24 00:25:53;;;;;;;17.40;9.88;;;1.60;99.90;;;;;;5075831;28;20055;-94
2021/11/24 00:28:19;;;;;;;15.38;9.70;;;1.60;99.90;;;;;;5059495;28;20033;-94
2021/11/24 00:30:47;;;;;;;12.98;9.15;;;1.70;99.90;;;;;;5075544;28;20021;-93
2021/11/24 00:33:13;;;;;;;16.88;10.80;;;1.70;99.90;;;;;;5076286;28;20051;-94
2021/11/24 00:35:39;;;;;;;16.90;10.20;;;1.60;99.90;;;;;;5059325;28;20056;-94
2021/11/24 00:38:05;;;;;;;14.30;8.93;;;1.60;99.90;;;;;;5075711;28;20025;-93
2021/11/24 00:40:31;;;;;;;12.00;7.85;;;1.60;99.90;;;;;;5075549;28;20070;-94
2021/11/24 00:42:59;;;;;;;26.92;12.77;;;1.70;99.90;;;;;;5075054;28;20481;-94
2021/11/24 00:45:25;;;;;;;19.60;10.57;;;1.70;99.90;;;;;;5075599;28;20119;-94
2021/11/24 00:47:51;;;;;;;17.13;10.27;;;1.70;99.90;;;;;;5059209;28;20166;-94
2021/11/24 00:50:17;;;;;;;12.82;8.40;;;1.70;99.90;;;;;;5077118;28;20048;-94
2021/11/24 00:52:43;;;;;;;14.13;8.73;;;1.70;99.90;;;;;;5075343;28;20157;-94
2021/11/24 00:55:10;;;;;;;12.57;8.40;;;1.70;99.90;;;;;;5075666;28;20036;-94
2021/11/24 00:57:35;;;;;;;13.65;8.63;;;1.80;99.90;;;;;;5075608;28;20021;-93
2021/11/24 01:00:04;;;;;;;13.30;8.88;;;1.90;99.90;;;;;;5075259;28;20031;-94
2021/11/24 01:02:32;;;;;;;11.13;7.85;;;1.90;99.90;;;;;;5075379;28;20105;-94
2021/11/24 01:04:57;;;;;;;15.20;9.85;;;1.90;99.90;;;;;;5075752;28;20064;-93
2021/11/24 01:07:23;;;;;;;12.10;8.75;;;1.70;99.90;;;;;;5075037;28;20106;-94
2021/11/24 01:09:51;;;;;;;13.50;9.23;;;1.70;99.90;;;;;;5076495;28;20384;-93
2021/11/24 01:12:21;;;;;;;15.23;9.88;;;1.60;99.90;;;;;;5075125;28;20057;-94
2021/11/24 01:14:49;;;;;;;11.77;8.95;;;1.70;99.90;;;;;;5058680;28;20041;-93
2021/11/24 01:17:15;;;;;;;13.07;8.93;;;1.60;99.90;;;;;;5058608;28;20467;-93
2021/11/24 01:19:42;;;;;;;12.35;9.00;;;1.60;99.90;;;;;;5075435;28;20107;-93
2021/11/24 01:22:09;;;;;;;11.85;8.32;;;1.70;99.90;;;;;;5074891;28;20530;-93
2021/11/24 01:24:35;;;;;;;13.77;8.68;;;1.70;99.90;;;;;;5058504;28;20394;-93
2021/11/24 01:27:01;;;;;;;15.07;9.80;;;1.80;99.90;;;;;;5075163;28;20029;-93
2021/11/24 01:29:28;;;;;;;13.63;9.20;;;1.80;99.90;;;;;;5058444;28;20082;-93
2021/11/24 01:31:54;;;;;;;29.73;13.30;;;1.70;99.90;;;;;;5074840;28;20082;-93
2021/11/24 01:34:21;;;;;;;31.23;14.93;;;1.80;99.90;;;;;;5074623;28;20017;-93
2021/11/24 01:36:47;;;;;;;25.40;11.80;;;1.80;99.90;;;;;;5074410;28;20024;-92
2021/11/24 01:39:12;;;;;;;15.73;9.90;;;1.80;99.90;;;;;;5058316;28;20119;-93
2021/11/24 01:41:38;;;;;;;15.32;9.65;;;1.80;99.90;;;;;;5074934;28;20083;-94
2021/11/24 01:44:05;;;;;;;14.93;9.75;;;1.90;99.90;;;;;;5074265;28;20088;-94
2021/11/24 01:46:31;;;;;;;15.13;9.43;;;1.90;99.90;;;;;;5058084;28;20025;-94
2021/11/24 01:48:57;;;;;;;13.13;9.23;;;1.90;99.90;;;;;;5074588;28;20585;-94
2021/11/24 01:51:23;;;;;;;15.10;9.93;;;1.90;99.90;;;;;;5057568;28;20025;-94
2021/11/24 01:53:49;;;;;;;14.88;9.88;;;1.90;99.90;;;;;;5074196;28;20021;-94
2021/11/24 01:56:15;;;;;;;14.60;9.55;;;1.90;99.90;;;;;;5073188;28;20039;-94
2021/11/24 01:58:41;;;;;;;15.43;10.18;;;1.90;99.90;;;;;;5074010;28;20028;-94
2021/11/24 02:01:07;;;;;;;13.73;9.25;;;1.90;99.90;;;;;;5057724;28;20142;-94
2021/11/24 02:03:33;;;;;;;14.77;9.25;;;1.90;99.90;;;;;;5074220;28;20028;-94
2021/11/24 02:06:00;;;;;;;17.00;10.75;;;2.00;99.90;;;;;;5074995;28;20042;-94
2021/11/24 02:08:28;;;;;;;15.75;10.38;;;1.90;99.90;;;;;;5074316;28;20028;-94
2021/11/24 02:10:57;;;;;;;16.13;11.18;;;1.90;99.90;;;;;;5057552;28;20037;-94
2021/11/24 02:13:23;;;;;;;16.57;11.53;;;1.80;99.90;;;;;;5057688;28;20032;-94
2021/11/24 02:15:49;;;;;;;17.35;10.50;;;1.90;99.90;;;;;;5073631;28;20254;-95
2021/11/24 02:18:15;;;;;;;13.55;9.65;;;1.90;99.90;;;;;;5073843;28;20017;-94
2021/11/24 02:20:45;;;;;;;17.23;10.80;;;1.90;99.90;;;;;;5073613;28;20028;-94
2021/11/24 02:23:14;;;;;;;18.30;12.35;;;2.00;99.90;;;;;;5074059;28;20463;-94
2021/11/24 02:25:43;;;;;;;14.63;10.57;;;2.00;99.90;;;;;;5073506;28;20490;-94
2021/11/24 02:28:09;;;;;;;13.90;10.35;;;2.00;99.90;;;;;;5074048;28;20032;-94
2021/11/24 02:30:36;;;;;;;17.63;11.32;;;2.00;99.90;;;;;;5073625;28;20044;-95
2021/11/24 02:33:03;;;;;;;38.08;23.40;;;2.00;99.90;;;;;;5056869;28;20056;-95
2021/11/24 02:35:29;;;;;;;25.60;15.35;;;2.10;99.90;;;;;;5056927;28;20037;-95
2021/11/24 02:37:55;;;;;;;36.65;19.58;;;2.20;99.90;;;;;;5073359;28;20433;-95
2021/11/24 02:40:21;;;;;;;35.40;21.27;;;2.00;99.90;;;;;;5073615;28;20028;-94
2021/11/24 02:42:46;;;;;;;36.00;21.73;;;1.90;99.90;;;;;;5073438;28;20466;-95
2021/11/24 02:45:12;;;;;;;34.53;20.70;;;1.80;99.90;;;;;;5073749;28;20035;-94
2021/11/24 02:47:38;;;;;;;34.30;21.10;;;1.60;99.90;;;;;;5073063;28;20030;-94
2021/11/24 02:50:06;;;;;;;29.55;17.92;;;1.70;99.90;;;;;;5074748;28;20071;-95
2021/11/24 02:52:32;;;;;;;34.13;21.02;;;1.70;99.90;;;;;;5072858;28;20406;-93
2021/11/24 02:55:00;;;;;;;29.73;18.80;;;1.60;99.90;;;;;;5073044;28;20409;-94
2021/11/24 02:57:34;;;;;;;30.90;18.90;;;1.40;99.90;;;;;;5073157;28;20021;-94
2021/11/24 03:00:04;;;;;;;36.75;20.52;;;1.40;99.90;;;;;;5090073;28;20024;-95
2021/11/24 03:02:32;;;;;;;44.60;27.20;;;1.50;99.90;;;;;;5074420;28;20052;-95
2021/11/24 03:04:58;;;;;;;40.00;23.08;;;1.40;99.90;;;;;;5056532;28;20039;-95
2021/11/24 03:07:23;;;;;;;38.47;23.48;;;1.30;99.90;;;;;;5072884;28;20107;-95
2021/11/24 03:09:52;;;;;;;38.72;24.23;;;1.20;99.90;;;;;;5073162;28;20448;-95
2021/11/24 03:12:20;;;;;;;37.35;23.23;;;1.10;99.90;;;;;;5074226;28;20383;-95
2021/11/24 03:14:46;;;;;;;46.63;25.05;;;1.20;99.90;;;;;;5073792;28;20028;-94
2021/11/24 03:17:12;;;;;;;40.90;23.20;;;1.20;99.90;;;;;;5057449;28;20036;-95
2021/11/24 03:19:37;;;;;;;39.33;23.52;;;1.30;99.90;;;;;;5056519;28;20029;-95
2021/11/24 03:22:04;;;;;;;37.80;23.55;;;1.30;99.90;;;;;;5072799;28;20056;-95
2021/11/24 03:24:31;;;;;;;32.22;20.08;;;1.30;99.90;;;;;;5074557;28;20043;-95
2021/11/24 03:26:58;;;;;;;35.22;21.27;;;1.10;99.90;;;;;;5073741;28;20025;-96
2021/11/24 03:29:26;;;;;;;34.88;21.63;;;0.90;99.90;;;;;;5073908;28;20028;-96
2021/11/24 03:31:52;;;;;;;29.75;18.92;;;1.00;99.90;;;;;;5073351;28;20036;-96
2021/11/24 03:34:18;;;;;;;30.50;19.50;;;1.10;99.90;;;;;;5074034;28;20087;-95
2021/11/24 03:36:44;;;;;;;33.42;19.13;;;1.20;99.90;;;;;;5075218;28;20028;-95
2021/11/24 03:39:10;;;;;;;28.80;16.25;;;1.30;99.90;;;;;;5073956;28;20025;-95
2021/11/24 03:41:36;;;;;;;27.90;16.90;;;1.40;99.90;;;;;;5072934;28;20052;-95
2021/11/24 03:44:02;;;;;;;31.80;19.42;;;1.50;99.90;;;;;;5073206;28;20043;-96
2021/11/24 03:46:29;;;;;;;31.95;19.05;;;1.40;99.90;;;;;;5072808;28;20024;-96
2021/11/24 03:48:55;;;;;;;34.80;20.98;;;1.40;99.90;;;;;;5073158;28;20043;-95
2021/11/24 03:51:21;;;;;;;32.33;20.10;;;1.50;99.90;;;;;;5073228;28;20028;-96
2021/11/24 03:53:48;;;;;;;30.15;17.60;;;1.50;99.90;;;;;;5056106;28;20028;-96
2021/11/24 03:56:15;;;;;;;40.35;21.15;;;1.60;99.90;;;;;;5074092;28;20364;-94
2021/11/24 03:58:41;;;;;;;34.33;22.33;;;1.70;99.90;;;;;;5072492;28;20039;-94
2021/11/24 04:01:07;;;;;;;27.52;16.23;;;1.70;99.90;;;;;;5074336;28;20031;-92
2021/11/24 04:03:33;;;;;;;21.58;13.95;;;1.70;99.90;;;;;;5073861;28;20020;-90
2021/11/24 04:05:59;;;;;;;21.85;13.10;;;1.80;99.90;;;;;;5072069;28;20024;-90
2021/11/24 04:08:25;;;;;;;19.92;13.63;;;1.90;99.90;;;;;;5072661;28;20115;-91
2021/11/24 04:10:52;;;;;;;25.73;17.40;;;1.90;99.90;;;;;;5101860;28;20071;-91
2021/11/24 04:13:18;;;;;;;37.17;21.30;;;1.90;99.90;;;;;;5094256;28;20094;-90
2021/11/24 04:15:46;;;;;;;23.38;15.98;;;2.00;99.90;;;;;;5094257;28;20474;-90
2021/11/24 04:18:12;;;;;;;27.73;15.77;;;2.10;99.90;;;;;;5076014;28;20028;-90
2021/11/24 04:20:38;;;;;;;28.85;17.42;;;2.00;99.90;;;;;;5096200;28;20016;-90
2021/11/24 04:23:04;;;;;;;26.42;15.50;;;2.00;99.90;;;;;;5096236;28;20020;-90
2021/11/24 04:25:30;;;;;;;26.15;15.02;;;2.10;99.90;;;;;;5097210;28;20485;-90
2021/11/24 04:27:56;;;;;;;29.20;16.02;;;2.10;99.90;;;;;;5079348;28;20482;-90
2021/11/24 04:30:23;;;;;;;30.73;15.35;;;2.10;99.90;;;;;;5096493;28;20401;-90
2021/11/24 04:32:50;;;;;;;27.33;15.75;;;2.10;99.90;;;;;;5087932;28;20474;-90
2021/11/24 04:35:16;;;;;;;28.58;17.58;;;2.10;99.90;;;;;;5095479;28;20031;-89
2021/11/24 04:37:42;;;;;;;32.90;17.92;;;1.90;99.90;;;;;;5096127;28;20106;-90
2021/11/24 04:40:09;;;;;;;24.80;14.30;;;1.90;99.90;;;;;;5095994;28;20020;-90
2021/11/24 04:42:37;;;;;;;25.42;14.15;;;2.00;99.90;;;;;;5079488;28;20036;-90
2021/11/24 04:45:03;;;;;;;34.08;19.02;;;2.00;99.90;;;;;;5079651;28;20055;-91
2021/11/24 04:47:29;;;;;;;30.30;15.93;;;2.00;99.90;;;;;;5094073;28;20085;-91
2021/11/24 04:49:55;;;;;;;34.70;18.88;;;2.00;99.90;;;;;;5079089;28;20024;-90
2021/11/24 04:52:20;;;;;;;35.60;19.85;;;1.80;99.90;;;;;;5096673;28;20119;-90
2021/11/24 04:54:46;;;;;;;44.88;24.38;;;1.90;99.90;;;;;;5079094;28;20111;-91
2021/11/24 04:57:12;;;;;;;38.25;21.02;;;1.70;99.90;;;;;;5096696;28;20107;-90
2021/11/24 04:59:39;;;;;;;34.15;17.75;;;1.60;99.90;;;;;;5095435;28;20062;-91
2021/11/24 05:02:05;;;;;;;32.38;18.83;;;1.60;99.90;;;;;;5078848;28;20032;-90
2021/11/24 05:04:31;;;;;;;27.70;16.83;;;1.60;99.90;;;;;;5095601;28;20096;-91
2021/11/24 05:06:58;;;;;;;29.67;16.83;;;1.60;99.90;;;;;;5096649;28;20054;-90
2021/11/24 05:09:25;;;;;;;29.10;16.25;;;1.60;99.90;;;;;;5096511;28;20024;-91
2021/11/24 05:11:52;;;;;;;28.80;16.92;;;1.50;99.90;;;;;;5096179;28;20044;-90
2021/11/24 05:14:24;;;;;;;30.92;17.42;;;1.40;99.90;;;;;;5095235;28;20158;-90
2021/11/24 05:16:51;;;;;;;28.52;16.20;;;1.50;99.90;;;;;;5095401;28;20020;-90
2021/11/24 05:19:20;;;;;;;28.98;17.10;;;1.60;99.90;;;;;;5062125;28;20042;-90
2021/11/24 05:21:51;;;;;;;28.33;16.65;;;1.60;99.90;;;;;;5095672;28;20034;-90
2021/11/24 05:24:18;;;;;;;30.90;18.38;;;1.60;99.90;;;;;;5096290;28;20025;-90
2021/11/24 05:26:44;;;;;;;53.72;29.65;;;1.70;99.90;;;;;;5078542;28;20045;-90
2021/11/24 05:29:10;;;;;;;65.10;34.80;;;1.80;99.90;;;;;;5094920;28;20020;-90
2021/11/24 05:31:36;;;;;;;51.63;26.42;;;1.90;99.90;;;;;;5094956;28;20395;-91
2021/11/24 05:34:03;;;;;;;51.03;25.23;;;2.00;99.90;;;;;;5096869;28;20036;-91
2021/11/24 05:36:29;;;;;;;60.97;28.98;;;2.00;99.90;;;;;;5098834;28;20049;-90
2021/11/24 05:38:55;;;;;;;70.35;34.53;;;2.00;99.90;;;;;;5100391;28;20028;-91
2021/11/24 05:41:22;;;;;;;55.05;27.40;;;2.00;99.90;;;;;;5096709;28;20027;-90
2021/11/24 05:43:50;;;;;;;43.33;22.55;;;2.10;99.90;;;;;;5100691;28;20024;-92
2021/11/24 05:46:27;;;;;;;44.22;25.25;;;2.10;99.90;;;;;;5102572;28;20551;-88
2021/11/24 05:48:55;;;;;;;45.72;24.27;;;2.10;99.90;;;;;;5102364;28;20024;-90
2021/11/24 05:51:21;;;;;;;39.70;21.30;;;1.90;99.90;;;;;;5102180;28;20032;-91
2021/11/24 05:53:47;;;;;;;38.25;21.25;;;2.00;99.90;;;;;;5103024;28;20024;-91
2021/11/24 05:56:13;;;;;;;33.67;19.50;;;1.90;99.90;;;;;;5088005;28;20054;-92
2021/11/24 05:58:39;;;;;;;43.72;24.80;;;1.80;99.90;;;;;;5082004;28;20109;-92
2021/11/24 06:01:04;;;;;;;32.95;19.35;;;1.50;99.90;;;;;;5068129;28;20127;-93
2021/11/24 06:03:30;;;;;;;30.15;18.75;;;1.50;99.90;;;;;;5084745;28;20032;-93
2021/11/24 14:56:35;;;;;;;42.85;20.42;;;0.90;99.90;;;;;;5107372;27;20390;-86
2021/11/24 14:59:01;;;;;;;47.47;23.48;;;0.90;99.90;;;;;;5093071;28;20547;-87
2021/11/24 15:01:26;;;;;;;40.63;21.48;;;0.90;99.90;;;;;;5089716;28;20063;-87
2021/11/24 15:03:58;;;;;;;40.22;20.52;;;0.90;99.90;;;;;;5092327;28;20028;-86
2021/11/24 15:06:25;;;;;;;41.53;22.08;;;0.90;99.90;;;;;;5090809;28;20036;-85
2021/11/24 15:08:51;;;;;;;40.20;20.55;;;0.90;99.90;;;;;;5090230;28;20047;-86
2021/11/24 15:11:16;;;;;;;33.10;19.30;;;0.90;99.90;;;;;;5089182;28;20393;-86
2021/11/24 15:13:42;;;;;;;47.65;23.42;;;0.90;99.90;;;;;;5089371;28;20040;-86
2021/11/24 15:16:11;;;;;;;68.97;31.48;;;0.90;99.90;;;;;;5089417;28;20027;-86
2021/11/24 15:18:37;;;;;;;82.40;34.10;;;0.90;99.90;;;;;;5090608;28;20016;-86
2021/11/24 15:21:04;;;;;;;91.72;35.15;;;0.90;99.90;;;;;;5089494;28;20050;-86
2021/11/24 15:23:30;;;;;;;80.82;32.97;;;1.00;99.90;;;;;;5087840;28;20031;-86
2021/11/24 15:25:56;;;;;;;52.75;24.70;;;1.00;99.90;;;;;;5089558;28;20028;-86
2021/11/24 15:28:22;;;;;;;68.97;29.00;;;1.10;99.90;;;;;;5090183;28;20039;-87
2021/11/24 15:30:49;;;;;;;41.40;22.30;;;1.10;99.90;;;;;;5089338;28;20051;-87
2021/11/24 15:33:15;;;;;;;41.08;22.30;;;1.20;99.90;;;;;;5089675;28;20036;-87
2021/11/24 15:35:42;;;;;;;34.95;21.48;;;1.30;99.90;;;;;;5088962;28;20060;-86
2021/11/24 15:38:09;;;;;;;39.70;23.17;;;1.40;99.90;;;;;;5089715;28;20089;-86
2021/11/24 15:40:35;;;;;;;42.67;24.67;;;1.50;99.90;;;;;;5102517;28;20042;-86
2021/11/24 15:43:02;;;;;;;38.15;23.65;;;1.60;99.90;;;;;;5099711;28;20024;-86
2021/11/24 15:45:28;;;;;;;36.83;23.77;;;1.80;99.90;;;;;;5092905;28;20024;-86
2021/11/24 15:47:54;;;;;;;41.15;24.52;;;1.90;99.90;;;;;;5090248;28;20474;-86
2021/11/24 15:50:20;;;;;;;74.50;41.45;;;1.90;99.90;;;;;;5088836;28;20078;-86
2021/11/24 15:52:46;;;;;;;53.78;31.10;;;2.10;99.90;;;;;;5088897;28;20020;-88
2021/11/24 15:55:12;;;;;;;42.50;26.10;;;2.20;99.90;;;;;;5088891;28;20044;-86
2021/11/24 15:57:38;;;;;;;47.78;28.17;;;2.20;99.90;;;;;;5090099;28;20108;-85
2021/11/24 16:00:08;;;;;;;46.75;24.98;;;2.30;99.90;;;;;;5089571;28;20412;-85
2021/11/24 16:02:36;;;;;;;46.55;25.83;;;2.30;99.90;;;;;;5088383;28;20081;-86
2021/11/24 16:05:02;;;;;;;51.20;28.45;;;2.30;99.90;;;;;;5087838;28;20025;-86
2021/11/24 16:07:28;;;;;;;49.67;27.20;;;2.40;99.90;;;;;;5077335;28;20032;-86
2021/11/24 16:09:54;;;;;;;49.38;27.77;;;2.30;99.90;;;;;;5075636;28;20028;-86
2021/11/24 16:12:19;;;;;;;44.92;26.98;;;2.30;99.90;;;;;;5074391;28;20494;-86
2021/11/24 16:14:45;;;;;;;42.20;25.38;;;2.30;99.90;;;;;;5074727;28;20032;-86
2021/11/24 16:17:11;;;;;;;42.03;25.77;;;2.30;99.90;;;;;;5073147;28;20013;-85
2021/11/24 16:19:37;;;;;;;42.45;26.02;;;2.40;99.90;;;;;;5075889;28;20027;-86
2021/11/24 16:22:03;;;;;;;39.20;24.35;;;2.40;99.90;;;;;;5075969;28;20499;-86
2021/11/24 16:24:29;;;;;;;36.10;23.90;;;2.40;99.90;;;;;;5074785;28;20385;-86
2021/11/24 16:26:55;;;;;;;37.25;22.33;;;2.50;99.90;;;;;;5074648;28;20119;-85
2021/11/24 16:29:21;;;;;;;39.92;23.13;;;2.50;99.90;;;;;;5074715;28;20033;-86
2021/11/24 16:31:47;;;;;;;41.33;23.75;;;2.50;99.90;;;;;;5074689;28;20375;-86
2021/11/24 16:34:13;;;;;;;38.45;23.10;;;2.50;99.90;;;;;;5074478;28;20039;-87
2021/11/24 16:36:39;;;;;;;39.60;22.60;;;2.50;99.90;;;;;;5080635;28;20024;-85
2021/11/24 16:39:04;;;;;;;34.47;21.60;;;2.60;99.90;;;;;;5094350;28;20020;-85
2021/11/24 16:41:30;;;;;;;35.70;22.02;;;2.50;99.90;;;;;;5095982;28;20031;-85
2021/11/24 16:43:56;;;;;;;37.10;22.17;;;2.50;99.90;;;;;;5082126;28;20075;-85
2021/11/24 16:46:22;;;;;;;34.65;21.05;;;2.60;99.90;;;;;;5075436;28;20056;-85
2021/11/24 16:48:48;;;;;;;35.47;21.48;;;2.60;99.90;;;;;;5074267;28;20052;-85
2021/11/24 16:51:26;;;;;;;34.33;20.33;;;2.60;99.90;;;;;;5074261;28;20032;-84
2021/11/24 16:53:52;;;;;;;35.42;21.08;;;2.60;99.90;;;;;;5074253;28;20029;-88
2021/11/24 16:56:20;;;;;;;35.78;21.17;;;2.70;99.90;;;;;;5073920;28;20101;-84
2021/11/24 16:58:45;;;;;;;41.17;24.17;;;2.70;99.90;;;;;;5074118;28;20039;-85
2021/11/24 17:01:11;;;;;;;34.83;22.05;;;2.70;99.90;;;;;;5074048;28;20020;-85
2021/11/24 17:03:37;;;;;;;43.83;25.35;;;2.70;99.90;;;;;;5074164;28;20027;-87
2021/11/24 17:06:03;;;;;;;40.90;24.10;;;2.70;99.90;;;;;;5074150;28;20025;-87
2021/11/24 17:08:28;;;;;;;35.97;20.42;;;2.70;99.90;;;;;;5073968;28;20049;-86
2021/11/24 17:10:54;;;;;;;29.58;17.67;;;2.70;99.90;;;;;;5075066;28;20025;-87
2021/11/24 17:13:20;;;;;;;39.47;22.83;;;2.80;99.90;;;;;;5074955;28;20025;-87
2021/11/24 17:15:46;;;;;;;49.33;27.60;;;2.80;99.90;;;;;;5073674;28;20054;-87
2021/11/24 17:18:12;;;;;;;40.25;25.15;;;2.80;99.90;;;;;;5072674;28;20059;-86
2021/11/24 17:20:38;;;;;;;35.15;21.10;;;2.90;99.90;;;;;;5073535;28;20024;-86
2021/11/24 17:23:10;;;;;;;31.65;20.50;;;2.80;99.90;;;;;;5073447;28;20028;-86
2021/11/24 17:25:38;;;;;;;29.23;17.83;;;2.80;99.90;;;;;;5074823;28;20032;-86
2021/11/24 17:28:05;;;;;;;34.58;20.55;;;2.90;99.90;;;;;;5074420;28;20474;-86
2021/11/24 17:30:31;;;;;;;29.55;18.00;;;3.00;99.90;;;;;;5073462;28;20032;-87
2021/11/24 17:32:57;;;;;;;40.88;25.52;;;3.00;99.90;;;;;;5059799;28;20116;-87
2021/11/24 17:35:23;;;;;;;42.85;25.67;;;3.00;99.90;;;;;;5053441;28;20136;-87
2021/11/24 17:37:48;;;;;;;41.97;23.67;;;3.00;99.90;;;;;;5067976;28;20025;-87
2021/11/24 17:40:16;;;;;;;41.30;23.88;;;3.00;99.90;;;;;;5072738;28;20032;-87
2021/11/24 17:42:42;;;;;;;37.53;22.08;;;3.00;99.90;;;;;;5074146;28;20023;-87
2021/11/24 17:45:08;;;;;;;31.55;18.85;;;3.00;99.90;;;;;;5072407;28;20024;-88
2021/11/24 17:47:34;;;;;;;39.80;23.65;;;3.10;99.90;;;;;;5076849;28;20077;-87
2021/11/24 17:50:00;;;;;;;40.67;22.50;;;3.10;99.90;;;;;;5071228;28;20479;-88
2021/11/24 17:52:26;;;;;;;42.70;22.90;;;3.10;99.90;;;;;;5071454;28;20035;-87
2021/11/24 17:54:52;;;;;;;40.78;22.52;;;3.10;99.90;;;;;;5071362;28;20040;-88
2021/11/24 17:57:19;;;;;;;33.35;20.48;;;3.00;99.90;;;;;;5072669;28;20356;-87
2021/11/24 17:59:45;;;;;;;39.80;22.02;;;3.10;99.90;;;;;;5074024;28;20019;-87
2021/11/24 18:02:11;;;;;;;112.13;50.83;;;3.10;99.90;;;;;;5073851;28;20051;-87
2021/11/24 18:04:37;;;;;;;87.63;45.03;;;3.10;99.90;;;;;;5071411;28;20078;-87
2021/11/24 18:07:03;;;;;;;56.50;31.58;;;3.10;99.90;;;;;;5073027;28;20024;-88
2021/11/24 18:09:29;;;;;;;93.47;48.70;;;3.10;99.90;;;;;;5073828;28;20524;-85
2021/11/24 18:11:55;;;;;;;71.13;38.53;;;3.10;99.90;;;;;;5072552;28;20037;-86
2021/11/24 18:14:20;;;;;;;82.20;47.05;;;3.10;99.90;;;;;;5072482;28;20131;-85
2021/11/24 18:16:47;;;;;;;52.88;28.90;;;3.10;99.90;;;;;;5072497;28;20025;-85
2021/11/24 18:19:14;;;;;;;61.58;31.83;;;3.10;99.90;;;;;;5073806;28;20028;-85
2021/11/24 18:21:41;;;;;;;57.38;29.60;;;3.10;99.90;;;;;;5072096;28;20030;-86
2021/11/24 18:24:08;;;;;;;57.35;29.33;;;3.10;99.90;;;;;;5071548;28;20059;-87
2021/11/24 18:26:35;;;;;;;48.72;26.98;;;3.20;99.90;;;;;;5073156;28;20028;-87
2021/11/24 18:29:01;;;;;;;46.13;26.05;;;3.20;99.90;;;;;;5072670;28;20032;-86
2021/11/24 18:31:31;;;;;;;47.38;26.55;;;3.20;99.90;;;;;;5072767;28;20093;-87
2021/11/24 18:34:01;;;;;;;41.92;23.73;;;3.20;99.90;;;;;;5071938;28;20024;-86
2021/11/24 18:36:27;;;;;;;41.53;21.52;;;3.20;99.90;;;;;;5071330;28;20117;-85
2021/11/24 18:38:54;;;;;;;41.28;24.02;;;3.10;99.90;;;;;;5074083;28;20382;-86
2021/11/24 18:41:20;;;;;;;37.92;21.58;;;3.10;99.90;;;;;;5082610;28;20016;-86
2021/11/24 18:43:45;;;;;;;38.15;21.25;;;3.10;99.90;;;;;;5072802;28;20051;-86
2021/11/24 18:46:13;;;;;;;35.25;20.92;;;3.10;99.90;;;;;;5071661;28;20475;-88
2021/11/24 18:48:40;;;;;;;36.17;21.10;;;3.10;99.90;;;;;;5071886;28;20029;-86
2021/11/24 18:51:06;;;;;;;34.65;20.50;;;3.10;99.90;;;;;;5071563;28;20036;-87
2021/11/24 18:53:32;;;;;;;35.72;21.10;;;3.00;99.90;;;;;;5071679;28;20024;-88
2021/11/24 18:55:58;;;;;;;32.53;19.80;;;3.10;99.90;;;;;;5071633;28;20052;-88
2021/11/24 18:58:23;;;;;;;32.42;18.35;;;3.00;99.90;;;;;;5072835;28;20020;-88
2021/11/24 19:00:50;;;;;;;32.28;19.05;;;3.00;99.90;;;;;;5092591;28;20020;-87
2021/11/24 19:03:16;;;;;;;33.05;18.38;;;3.00;99.90;;;;;;5076462;28;20483;-87
2021/11/24 19:05:42;;;;;;;27.70;17.13;;;3.00;99.90;;;;;;5072144;28;20032;-85
2021/11/24 19:08:08;;;;;;;27.45;17.17;;;3.00;99.90;;;;;;5072311;28;20020;-85
2021/11/24 19:10:35;;;;;;;30.50;18.55;;;3.00;99.90;;;;;;5073268;28;20498;-86
2021/11/24 19:13:00;;;;;;;35.45;18.55;;;2.90;99.90;;;;;;5073051;28;20028;-87
2021/11/24 19:15:26;;;;;;;40.22;22.58;;;2.90;99.90;;;;;;5073046;28;20040;-86
2021/11/24 19:17:52;;;;;;;45.17;22.60;;;2.90;99.90;;;;;;5072774;28;20021;-83
2021/11/24 19:20:23;;;;;;;41.17;22.27;;;2.90;99.90;;;;;;5073093;28;20052;-83
2021/11/24 19:22:50;;;;;;;38.80;20.35;;;2.90;99.90;;;;;;5070982;28;20453;-82
2021/11/24 19:25:17;;;;;;;43.53;21.77;;;2.90;99.90;;;;;;5072985;28;20025;-83
2021/11/24 19:27:44;;;;;;;37.13;19.65;;;2.80;99.90;;;;;;5072813;28;20551;-83
2021/11/24 19:30:11;;;;;;;40.30;20.88;;;2.90;99.90;;;;;;5071650;28;20047;-84
2021/11/24 19:32:38;;;;;;;32.78;17.83;;;2.90;99.90;;;;;;5072636;28;20028;-84
2021/11/24 19:35:07;;;;;;;32.30;17.95;;;2.90;99.90;;;;;;5071522;28;20429;-83
2021/11/24 19:37:33;;;;;;;30.40;18.00;;;2.90;99.90;;;;;;5072564;28;20098;-84
2021/11/24 19:39:58;;;;;;;29.58;16.92;;;2.90;99.90;;;;;;5072850;28;20021;-83
2021/11/24 19:42:24;;;;;;;28.33;17.25;;;2.90;99.90;;;;;;5073674;28;20032;-83
2021/11/24 19:44:50;;;;;;;25.67;15.95;;;2.90;99.90;;;;;;5075510;28;20025;-83
2021/11/24 19:47:18;;;;;;;28.83;17.08;;;2.90;99.90;;;;;;5074653;28;20355;-83
2021/11/24 19:49:44;;;;;;;30.45;17.70;;;2.90;99.90;;;;;;5077085;28;20020;-84
2021/11/24 19:52:12;;;;;;;34.80;17.50;;;2.90;99.90;;;;;;5074417;28;20078;-83
2021/11/24 19:54:39;;;;;;;33.63;17.85;;;2.90;99.90;;;;;;5076229;28;20048;-83
2021/11/24 19:57:06;;;;;;;34.47;19.38;;;2.90;99.90;;;;;;5075371;28;20025;-83
2021/11/24 19:59:34;;;;;;;30.88;16.67;;;2.90;99.90;;;;;;5074914;28;20036;-83
2021/11/24 20:02:00;;;;;;;31.83;17.55;;;2.90;99.90;;;;;;5074342;28;20016;-84
2021/11/24 20:04:26;;;;;;;31.85;16.88;;;3.00;99.90;;;;;;5075787;28;20109;-84
2021/11/24 20:06:52;;;;;;;28.85;15.82;;;3.00;99.90;;;;;;5071701;28;20060;-83
2021/11/24 20:09:18;;;;;;;28.73;16.17;;;3.00;99.90;;;;;;5061501;28;20376;-84
2021/11/24 20:11:45;;;;;;;38.03;17.50;;;3.00;99.90;;;;;;5076180;28;20020;-84
2021/11/24 20:14:16;;;;;;;52.25;23.08;;;3.00;99.90;;;;;;5075049;28;20055;-82
2021/11/24 20:16:47;;;;;;;59.20;27.98;;;3.00;99.90;;;;;;5076142;28;20020;-82
2021/11/24 20:19:16;;;;;;;34.05;17.58;;;2.90;99.90;;;;;;5076097;28;20025;-83
2021/11/24 20:21:42;;;;;;;35.53;17.88;;;3.00;99.90;;;;;;5074830;28;20103;-83
2021/11/24 20:24:08;;;;;;;30.25;16.73;;;3.10;99.90;;;;;;5076081;28;20428;-83
2021/11/24 20:26:34;;;;;;;32.42;17.17;;;3.10;99.90;;;;;;5074484;28;20115;-82
2021/11/24 20:29:00;;;;;;;41.42;21.38;;;3.20;99.90;;;;;;5074898;28;20379;-83
2021/11/24 20:31:26;;;;;;;33.30;17.92;;;3.10;99.90;;;;;;5075964;28;20059;-83
2021/11/24 20:33:52;;;;;;;32.85;17.13;;;3.10;99.90;;;;;;5073931;28;20055;-83
2021/11/24 20:36:18;;;;;;;27.88;15.63;;;3.00;99.90;;;;;;5073101;28;20490;-83
2021/11/24 20:38:44;;;;;;;29.10;15.98;;;3.10;99.90;;;;;;5074192;28;20024;-82
2021/11/24 20:41:10;;;;;;;26.92;15.73;;;3.10;99.90;;;;;;5075807;28;20025;-82
2021/11/24 20:43:36;;;;;;;24.63;15.65;;;3.00;99.90;;;;;;5075671;28;20017;-82
2021/11/24 20:46:03;;;;;;;27.00;14.15;;;3.10;99.90;;;;;;5074283;28;20498;-83
2021/11/24 20:48:29;;;;;;;21.17;13.65;;;3.10;99.90;;;;;;5074488;28;20066;-82
2021/11/24 20:50:56;;;;;;;21.50;12.95;;;3.10;99.90;;;;;;5074263;28;20093;-82
2021/11/24 20:53:23;;;;;;;22.77;13.65;;;3.20;99.90;;;;;;5074977;28;20498;-82
2021/11/24 20:55:49;;;;;;;24.63;14.15;;;3.20;99.90;;;;;;5075362;28;20052;-82
2021/11/24 20:58:15;;;;;;;30.23;16.67;;;3.10;99.90;;;;;;5074241;28;20115;-83
2021/11/24 21:00:41;;;;;;;33.78;17.35;;;3.10;99.90;;;;;;5073991;28;20032;-82
2021/11/24 21:03:07;;;;;;;27.10;16.00;;;3.00;99.90;;;;;;5075392;28;20089;-83
2021/11/24 21:05:33;;;;;;;48.50;22.58;;;3.00;99.90;;;;;;5073723;28;20033;-83
2021/11/24 21:07:59;;;;;;;49.88;25.50;;;3.00;99.90;;;;;;5075355;28;20103;-83
2021/11/24 21:10:26;;;;;;;54.67;27.33;;;3.00;99.90;;;;;;5074005;28;20439;-83
2021/11/24 21:12:53;;;;;;;37.20;20.50;;;3.00;99.90;;;;;;5075289;28;20051;-83
2021/11/24 21:15:20;;;;;;;39.60;20.90;;;3.00;99.90;;;;;;5074884;28;20449;-83
2021/11/24 21:17:47;;;;;;;38.63;20.02;;;3.00;99.90;;;;;;5073489;28;20363;-83
2021/11/24 21:20:15;;;;;;;41.30;22.55;;;3.00;99.90;;;;;;5074871;28;20029;-82
2021/11/24 21:22:41;;;;;;;44.40;23.65;;;3.10;99.90;;;;;;5073879;28;20024;-83
2021/11/24 21:25:10;;;;;;;39.40;22.30;;;3.10;99.90;;;;;;5075336;28;20052;-84